createdAt,value
2019-03-19T00:01:58.453Z,79.62
2019-03-19T00:04:29.222Z,79.66
2019-03-19T00:07:00.068Z,80.04
2019-03-19T00:09:30.787Z,79.95
2019-03-19T00:12:01.613Z,79.56
2019-03-19T00:14:32.462Z,79.57
2019-03-19T00:17:03.374Z,79.37
2019-03-19T00:19:34.240Z,79.13
2019-03-19T00:22:06.610Z,78.90
2019-03-19T00:24:37.590Z,79.12
2019-03-19T00:27:08.384Z,79.14
2019-03-19T00:29:39.222Z,78.68
2019-03-19T00:32:10.078Z,79.34
2019-03-19T00:34:40.788Z,78.93
2019-03-19T00:37:11.534Z,79.09
2019-03-19T00:39:42.368Z,79.51
2019-03-19T00:42:13.183Z,79.31
2019-03-19T00:44:44.038Z,79.09
2019-03-19T00:47:14.961Z,78.96
2019-03-19T00:49:45.695Z,79.16
2019-03-19T00:52:16.451Z,79.18
2019-03-19T00:54:47.267Z,79.57
2019-03-19T00:57:18.088Z,79.35
2019-03-19T00:59:48.934Z,79.67
2019-03-19T01:02:19.674Z,79.47
2019-03-19T01:04:50.404Z,79.68
2019-03-19T01:07:21.158Z,79.88
2019-03-19T01:09:52.003Z,80.16
2019-03-19T01:12:22.938Z,79.57
2019-03-19T01:14:53.365Z,80.00
2019-03-19T01:17:24.173Z,79.82
2019-03-19T01:19:55.026Z,79.74
2019-03-19T01:22:25.758Z,79.73
2019-03-19T01:24:56.505Z,79.58
2019-03-19T01:27:27.328Z,79.64
2019-03-19T01:29:58.164Z,79.32
2019-03-19T01:32:29.118Z,79.18
2019-03-19T01:34:59.936Z,78.92
2019-03-19T01:37:30.771Z,78.66
2019-03-19T01:40:01.515Z,78.81
2019-03-19T01:42:32.367Z,79.15
2019-03-19T01:45:03.086Z,78.82
2019-03-19T01:47:33.481Z,78.54
2019-03-19T01:50:05.765Z,78.75
2019-03-19T01:52:36.705Z,78.80
2019-03-19T01:55:12.715Z,78.39
2019-03-19T01:57:43.393Z,78.25
2019-03-19T02:00:15.842Z,78.01
2019-03-19T02:02:46.721Z,78.69
2019-03-19T02:05:19.085Z,78.72
2019-03-19T02:07:49.947Z,78.32
2019-03-19T02:10:20.785Z,78.47
2019-03-19T02:12:51.486Z,78.11
2019-03-19T02:15:23.758Z,78.38
2019-03-19T02:17:54.297Z,78.27
2019-03-19T02:20:25.031Z,77.83
2019-03-19T02:22:55.519Z,78.52
2019-03-19T02:25:25.966Z,78.50
2019-03-19T02:27:56.715Z,78.73
2019-03-19T02:30:27.094Z,78.78
2019-03-19T02:32:57.970Z,78.79
2019-03-19T02:35:28.724Z,79.40
2019-03-19T02:37:59.548Z,79.50
2019-03-19T02:40:30.020Z,79.46
2019-03-19T02:43:00.836Z,79.25
2019-03-19T02:45:31.288Z,80.07
2019-03-19T02:48:02.078Z,80.16
2019-03-19T02:50:32.959Z,80.33
2019-03-19T02:53:03.916Z,80.21
2019-03-19T02:55:34.802Z,80.72
2019-03-19T02:58:05.734Z,80.60
2019-03-19T03:00:36.140Z,80.80
2019-03-19T03:03:06.577Z,80.97
2019-03-19T03:05:37.031Z,81.02
2019-03-19T03:08:07.748Z,81.20
2019-03-19T03:10:38.478Z,81.14
2019-03-19T03:13:09.207Z,81.47
2019-03-19T03:15:39.992Z,81.50
2019-03-19T03:18:10.793Z,81.60
2019-03-19T03:20:41.613Z,81.40
2019-03-19T03:23:12.080Z,81.24
2019-03-19T03:25:42.878Z,81.60
2019-03-19T03:28:13.639Z,81.49
2019-03-19T03:30:44.496Z,81.21
2019-03-19T03:33:15.343Z,81.68
2019-03-19T03:35:46.024Z,81.43
2019-03-19T03:38:16.508Z,81.37
2019-03-19T03:40:47.279Z,81.65
2019-03-19T03:43:18.109Z,81.71
2019-03-19T03:45:48.852Z,81.31
2019-03-19T03:48:19.579Z,80.78
2019-03-19T03:50:50.222Z,81.10
2019-03-19T03:53:20.960Z,81.23
2019-03-19T03:55:51.798Z,81.04
2019-03-19T03:58:22.533Z,80.91
2019-03-19T04:00:53.377Z,81.07
2019-03-19T04:03:24.206Z,81.11
2019-03-19T04:05:54.956Z,81.19
2019-03-19T04:08:25.437Z,80.91
2019-03-19T04:10:56.211Z,81.04
2019-03-19T04:13:27.039Z,80.77
2019-03-19T04:15:57.777Z,80.66
2019-03-19T04:18:28.269Z,80.85
2019-03-19T04:20:58.938Z,81.01
2019-03-19T04:23:29.922Z,80.85
2019-03-19T04:26:00.712Z,80.79
2019-03-19T04:28:31.628Z,80.58
2019-03-19T04:31:02.382Z,80.49
2019-03-19T04:33:32.863Z,80.03
2019-03-19T04:36:03.645Z,79.85
2019-03-19T04:38:34.420Z,80.16
2019-03-19T04:41:05.244Z,79.85
2019-03-19T04:43:36.055Z,79.93
2019-03-19T04:46:06.780Z,80.13
2019-03-19T04:48:37.149Z,80.09
2019-03-19T04:51:07.950Z,80.21
2019-03-19T04:53:38.788Z,80.14
2019-03-19T04:56:09.628Z,80.08
2019-03-19T04:58:40.359Z,80.05
2019-03-19T05:01:11.204Z,80.23
2019-03-19T05:03:42.030Z,80.24
2019-03-19T05:06:13.268Z,80.06
2019-03-19T05:08:44.112Z,80.41
2019-03-19T05:11:14.853Z,80.21
2019-03-19T05:13:45.570Z,80.62
2019-03-19T05:16:16.335Z,80.03
2019-03-19T05:18:46.736Z,80.44
2019-03-19T05:21:17.149Z,80.24
2019-03-19T05:23:48.153Z,80.37
2019-03-19T05:26:18.963Z,80.38
2019-03-19T05:28:49.890Z,79.92
2019-03-19T05:31:20.616Z,80.17
2019-03-19T05:33:51.390Z,80.26
2019-03-19T05:36:22.048Z,79.78
2019-03-19T05:38:52.845Z,79.97
2019-03-19T05:41:23.674Z,79.76
2019-03-19T05:43:54.615Z,79.92
2019-03-19T05:46:25.342Z,79.45
2019-03-19T05:48:56.170Z,79.44
2019-03-19T05:51:26.952Z,79.60
2019-03-19T05:53:57.746Z,79.26
2019-03-19T05:56:28.238Z,79.29
2019-03-19T05:58:59.027Z,79.19
2019-03-19T06:01:29.911Z,79.48
2019-03-19T06:04:00.891Z,79.12
2019-03-19T06:06:31.715Z,79.41
2019-03-19T06:09:02.454Z,79.59
2019-03-19T06:11:33.189Z,79.54
2019-03-19T06:14:04.748Z,79.14
2019-03-19T06:16:35.483Z,79.39
2019-03-19T06:19:06.033Z,79.09
2019-03-19T06:21:36.572Z,79.01
2019-03-19T06:24:07.298Z,78.96
2019-03-19T06:26:37.727Z,78.82
2019-03-19T06:29:08.529Z,78.39
2019-03-19T06:31:38.891Z,78.33
2019-03-19T06:34:09.813Z,78.32
2019-03-19T06:36:40.723Z,78.48
2019-03-19T06:39:11.591Z,78.43
2019-03-19T06:41:42.319Z,78.37
2019-03-19T06:44:12.863Z,78.61
2019-03-19T06:46:43.727Z,78.20
2019-03-19T06:49:14.622Z,78.13
2019-03-19T06:51:45.468Z,78.17
2019-03-19T06:54:16.026Z,78.24
2019-03-19T06:56:48.540Z,78.46
2019-03-19T06:59:19.549Z,78.72
2019-03-19T07:01:50.454Z,78.77
2019-03-19T07:04:22.149Z,78.16
2019-03-19T07:06:53.087Z,78.28
2019-03-19T07:09:24.076Z,77.71
2019-03-19T07:11:55.013Z,78.46
2019-03-19T07:14:25.905Z,77.53
2019-03-19T07:16:56.803Z,77.45
2019-03-19T07:19:29.371Z,77.39
2019-03-19T07:22:00.205Z,77.24
2019-03-19T07:24:30.849Z,77.23
2019-03-19T07:27:03.602Z,77.13
2019-03-19T07:29:34.705Z,76.26
2019-03-19T07:32:05.627Z,76.14
2019-03-19T07:34:36.525Z,76.72
2019-03-19T07:37:07.471Z,76.59
2019-03-19T07:39:38.054Z,76.27
2019-03-19T07:42:08.864Z,75.97
2019-03-19T07:44:39.793Z,75.08
2019-03-19T07:47:12.049Z,75.11
2019-03-19T07:49:42.889Z,74.88
2019-03-19T07:52:13.315Z,74.71
2019-03-19T07:54:44.205Z,74.53
2019-03-19T07:57:14.981Z,74.67
2019-03-19T07:59:45.782Z,74.28
2019-03-19T08:02:16.809Z,74.55
2019-03-19T08:04:47.726Z,74.37
2019-03-19T08:07:18.753Z,74.86
2019-03-19T08:09:49.730Z,74.49
2019-03-19T08:12:20.783Z,73.83
2019-03-19T08:14:51.685Z,74.34
2019-03-19T08:17:22.515Z,74.46
2019-03-19T08:19:53.327Z,73.80
2019-03-19T08:22:23.817Z,73.31
2019-03-19T08:24:54.736Z,73.31
2019-03-19T08:27:25.570Z,73.11
2019-03-19T08:29:56.359Z,72.85
2019-03-19T08:32:27.232Z,72.54
2019-03-19T08:34:58.063Z,72.28
2019-03-19T08:37:29.687Z,74.92
2019-03-19T08:40:00.683Z,70.06
2019-03-19T08:42:31.369Z,70.54
2019-03-19T08:45:02.241Z,70.34
2019-03-19T08:47:33.102Z,69.56
2019-03-19T08:50:05.232Z,70.48
2019-03-19T08:52:36.022Z,70.45
2019-03-19T08:55:07.073Z,70.31
2019-03-19T08:57:37.863Z,69.83
2019-03-19T09:00:17.482Z,70.22
2019-03-19T09:02:48.127Z,69.20
2019-03-19T09:05:18.568Z,69.40
2019-03-19T09:07:49.553Z,68.15
2019-03-19T09:10:21.190Z,68.84
2019-03-19T09:12:52.083Z,68.43
2019-03-19T09:15:27.929Z,67.21
2019-03-19T09:17:58.667Z,65.39
2019-03-19T09:20:29.142Z,65.48
2019-03-19T09:23:00.086Z,66.05
2019-03-19T09:25:30.846Z,65.67
2019-03-19T09:28:01.701Z,65.40
2019-03-19T09:30:32.291Z,64.10
2019-03-19T09:33:03.191Z,64.34
2019-03-19T09:35:34.056Z,62.76
2019-03-19T09:38:05.308Z,61.65
2019-03-19T09:40:36.138Z,62.26
2019-03-19T09:43:06.950Z,63.04
2019-03-19T09:45:37.903Z,63.17
2019-03-19T09:48:08.816Z,63.31
2019-03-19T09:50:39.659Z,62.30
2019-03-19T09:53:10.527Z,62.72
2019-03-19T09:55:41.015Z,62.50
2019-03-19T09:58:11.864Z,62.46
2019-03-19T10:00:42.593Z,62.66
2019-03-19T10:03:13.908Z,63.13
2019-03-19T10:05:46.964Z,63.02
2019-03-19T10:08:19.182Z,62.38
2019-03-19T10:10:52.512Z,62.22
2019-03-19T10:13:24.514Z,61.97
2019-03-19T10:15:56.299Z,62.16
2019-03-19T10:18:27.925Z,62.19
2019-03-19T10:20:59.196Z,60.05
2019-03-19T10:23:31.747Z,61.42
2019-03-19T10:26:03.677Z,59.42
2019-03-19T10:28:35.109Z,59.95
2019-03-19T10:31:06.903Z,59.07
2019-03-19T10:33:37.888Z,59.77
2019-03-19T10:36:08.280Z,58.40
2019-03-19T10:38:39.190Z,58.78
2019-03-19T10:41:10.046Z,58.00
2019-03-19T10:43:40.882Z,58.02
2019-03-19T10:46:11.792Z,58.31
2019-03-19T10:48:42.559Z,57.12
2019-03-19T10:51:13.354Z,57.53
2019-03-19T10:53:44.219Z,57.66
2019-03-19T10:56:15.440Z,57.68
2019-03-19T10:58:46.515Z,58.50
2019-03-19T11:01:17.557Z,59.08
2019-03-19T11:03:48.326Z,59.33
2019-03-19T11:06:19.287Z,60.32
2019-03-19T11:08:50.092Z,60.56
2019-03-19T11:11:20.941Z,59.75
2019-03-19T11:13:51.843Z,59.16
2019-03-19T11:16:22.615Z,59.80
2019-03-19T11:18:53.381Z,59.38
2019-03-19T11:21:24.200Z,59.26
2019-03-19T11:23:54.943Z,58.51
2019-03-19T11:26:25.933Z,56.68
2019-03-19T11:28:56.362Z,56.82
2019-03-19T11:31:27.126Z,55.90
2019-03-19T11:33:59.640Z,56.81
2019-03-19T11:36:30.449Z,56.73
2019-03-19T11:39:01.304Z,57.24
2019-03-19T11:41:32.035Z,57.60
2019-03-19T11:44:02.886Z,57.55
2019-03-19T11:46:37.905Z,58.60
2019-03-19T11:49:09.470Z,58.47
2019-03-19T11:51:40.481Z,58.92
2019-03-19T11:54:11.351Z,56.15
2019-03-19T11:56:41.883Z,57.51
2019-03-19T11:59:12.575Z,57.42
2019-03-19T12:01:43.363Z,55.72
2019-03-19T12:04:14.181Z,53.11
2019-03-19T12:06:45.096Z,51.68
2019-03-19T12:09:15.832Z,52.23
2019-03-19T12:11:46.220Z,52.06
2019-03-19T12:14:17.042Z,52.55
2019-03-19T12:16:47.824Z,52.67
2019-03-19T12:19:18.794Z,53.65
2019-03-19T12:21:49.508Z,53.11
2019-03-19T12:24:20.253Z,53.27
2019-03-19T12:26:51.190Z,52.77
2019-03-19T12:29:22.007Z,52.40
2019-03-19T12:31:52.395Z,52.22
2019-03-19T12:34:23.425Z,51.13
2019-03-19T12:36:54.213Z,52.44
2019-03-19T12:39:24.717Z,52.12
2019-03-19T12:41:55.510Z,51.10
2019-03-19T12:44:26.329Z,52.56
2019-03-19T12:46:56.830Z,50.61
2019-03-19T12:49:27.587Z,51.38
2019-03-19T12:51:58.077Z,50.41
2019-03-19T12:54:29.036Z,51.03
2019-03-19T12:56:59.889Z,51.31
2019-03-19T12:59:30.738Z,51.34
2019-03-19T13:02:01.459Z,51.25
2019-03-19T13:04:32.303Z,50.89
2019-03-19T13:07:03.109Z,50.81
2019-03-19T13:09:33.870Z,50.75
2019-03-19T13:12:04.817Z,50.90
2019-03-19T13:14:35.671Z,50.02
2019-03-19T13:17:06.400Z,49.80
2019-03-19T13:19:37.217Z,49.06
2019-03-19T13:22:08.039Z,48.42
2019-03-19T13:24:38.787Z,48.54
2019-03-19T13:27:09.685Z,47.86
2019-03-19T13:29:40.672Z,48.60
2019-03-19T13:32:11.401Z,48.81
2019-03-19T13:34:42.154Z,49.78
2019-03-19T13:37:12.976Z,51.14
2019-03-19T13:39:43.704Z,51.49
2019-03-19T13:42:14.450Z,52.31
2019-03-19T13:44:45.136Z,52.40
2019-03-19T13:47:21.936Z,52.12
2019-03-19T13:49:52.975Z,51.87
2019-03-19T13:52:23.821Z,51.47
2019-03-19T13:54:54.661Z,52.44
2019-03-19T13:57:25.488Z,52.47
2019-03-19T13:59:56.415Z,53.12
2019-03-19T14:02:27.269Z,51.26
2019-03-19T14:04:58.027Z,50.06
2019-03-19T14:07:28.947Z,50.04
2019-03-19T14:09:59.472Z,50.26
2019-03-19T14:12:30.229Z,50.57
2019-03-19T14:15:01.151Z,49.70
2019-03-19T14:17:31.615Z,49.63
2019-03-19T14:20:02.245Z,50.86
2019-03-19T14:22:33.037Z,50.73
2019-03-19T14:25:04.946Z,51.95
2019-03-19T14:27:35.374Z,52.49
2019-03-19T14:30:12.193Z,53.61
2019-03-19T14:32:43.054Z,53.53
2019-03-19T14:35:14.241Z,54.35
2019-03-19T14:37:45.306Z,53.35
2019-03-19T14:40:18.255Z,53.16
2019-03-19T14:42:49.262Z,53.03
2019-03-19T14:45:20.299Z,53.16
2019-03-19T14:47:51.273Z,53.64
2019-03-19T14:50:23.724Z,52.62
2019-03-19T14:52:54.253Z,52.20
2019-03-19T14:55:25.209Z,52.69
2019-03-19T14:57:55.894Z,53.04
2019-03-19T15:00:26.382Z,53.12
2019-03-19T15:02:57.188Z,53.98
2019-03-19T15:05:27.947Z,53.27
2019-03-19T15:07:58.864Z,53.76
2019-03-19T15:10:31.360Z,54.23
2019-03-19T15:13:02.178Z,54.39
2019-03-19T15:15:33.129Z,54.66
2019-03-19T15:18:03.958Z,53.81
2019-03-19T15:20:37.469Z,53.81
2019-03-19T15:23:08.568Z,54.15
2019-03-19T15:25:39.432Z,53.75
2019-03-19T15:28:11.818Z,53.41
2019-03-19T15:30:42.681Z,52.40
2019-03-19T15:33:15.900Z,53.24
2019-03-19T15:35:46.426Z,53.53
2019-03-19T15:38:17.194Z,53.68
2019-03-19T15:40:47.971Z,53.65
2019-03-19T15:43:18.662Z,53.61
2019-03-19T15:45:49.519Z,54.04
2019-03-19T15:48:20.332Z,53.90
2019-03-19T15:50:51.059Z,54.34
2019-03-19T15:53:21.432Z,53.50
2019-03-19T15:55:52.233Z,54.72
2019-03-19T15:58:22.698Z,54.33
2019-03-19T16:00:53.080Z,54.14
2019-03-19T16:03:23.954Z,54.71
2019-03-19T16:05:55.987Z,55.76
2019-03-19T16:08:26.755Z,56.28
2019-03-19T16:10:57.666Z,58.26
2019-03-19T16:13:28.389Z,57.71
2019-03-19T16:15:59.945Z,58.44
2019-03-19T16:18:30.768Z,56.66
2019-03-19T16:21:01.511Z,56.17
2019-03-19T16:23:32.239Z,56.65
2019-03-19T16:26:03.091Z,55.65
2019-03-19T16:28:33.934Z,55.96
2019-03-19T16:31:04.757Z,55.88
2019-03-19T16:33:35.630Z,56.24
2019-03-19T16:36:06.422Z,56.93
2019-03-19T16:38:37.163Z,56.62
2019-03-19T16:41:08.021Z,57.42
2019-03-19T16:43:38.500Z,58.13
2019-03-19T16:46:08.906Z,57.87
2019-03-19T16:48:39.442Z,58.72
2019-03-19T16:51:10.210Z,58.61
2019-03-19T16:53:41.063Z,58.90
2019-03-19T16:56:11.895Z,58.94
2019-03-19T16:58:42.609Z,59.17
2019-03-19T17:01:13.097Z,59.06
2019-03-19T17:03:43.514Z,59.64
2019-03-19T17:06:14.213Z,59.92
2019-03-19T17:08:44.596Z,60.09
2019-03-19T17:11:18.036Z,60.44
2019-03-19T17:13:48.905Z,60.53
2019-03-19T17:16:19.732Z,60.81
2019-03-19T17:18:50.681Z,60.97
2019-03-19T17:21:21.603Z,61.25
2019-03-19T17:23:52.484Z,61.53
2019-03-19T17:26:23.337Z,61.83
2019-03-19T17:28:54.108Z,61.81
2019-03-19T17:31:24.947Z,62.07
2019-03-19T17:33:55.632Z,61.94
2019-03-19T17:36:26.061Z,62.17
2019-03-19T17:38:56.475Z,62.12
2019-03-19T17:41:27.282Z,62.05
2019-03-19T17:43:58.107Z,62.50
2019-03-19T17:46:28.598Z,62.61
2019-03-19T17:48:59.462Z,62.82
2019-03-19T17:51:30.273Z,62.47
2019-03-19T17:54:01.182Z,62.63
2019-03-19T17:56:33.768Z,62.64
2019-03-19T17:59:04.639Z,62.48
2019-03-19T18:01:37.030Z,62.55
2019-03-19T18:04:07.875Z,62.88
2019-03-19T18:06:38.711Z,62.89
2019-03-19T18:09:09.453Z,63.33
2019-03-19T18:11:40.476Z,63.34
2019-03-19T18:14:16.027Z,63.33
2019-03-19T18:16:46.405Z,63.68
2019-03-19T18:19:17.300Z,63.52
2019-03-19T18:21:48.105Z,63.84
2019-03-19T18:24:18.878Z,63.86
2019-03-19T18:26:55.445Z,64.08
2019-03-19T18:29:26.271Z,64.13
2019-03-19T18:31:58.210Z,64.18
2019-03-19T18:34:32.565Z,64.27
2019-03-19T18:37:03.372Z,64.46
2019-03-19T18:39:35.616Z,64.57
2019-03-19T18:42:06.674Z,64.33
2019-03-19T18:44:51.374Z,64.75
2019-03-19T18:47:25.163Z,64.44
2019-03-19T18:49:59.087Z,64.90
2019-03-19T18:52:30.003Z,64.95
2019-03-19T18:55:00.854Z,64.86
2019-03-19T18:57:31.687Z,64.59
2019-03-19T19:00:02.646Z,64.55
2019-03-19T19:02:33.509Z,65.38
2019-03-19T19:05:06.937Z,65.41
2019-03-19T19:07:37.778Z,65.41
2019-03-19T19:10:14.269Z,65.75
2019-03-19T19:12:45.244Z,65.29
2019-03-19T19:15:17.476Z,65.57
2019-03-19T19:17:50.288Z,66.00
2019-03-19T19:20:21.309Z,65.67
2019-03-19T19:22:52.202Z,65.64
2019-03-19T19:25:24.400Z,65.72
2019-03-19T19:27:54.842Z,65.45
2019-03-19T19:30:30.668Z,65.66
2019-03-19T19:33:02.666Z,66.00
2019-03-19T19:35:34.111Z,66.21
2019-03-19T19:38:04.773Z,66.54
2019-03-19T19:40:35.603Z,66.65
2019-03-19T19:43:06.530Z,66.66
2019-03-19T19:45:37.498Z,66.84
2019-03-19T19:48:08.261Z,66.68
2019-03-19T19:50:38.912Z,66.43
2019-03-19T19:53:09.901Z,66.82
2019-03-19T19:55:40.700Z,67.36
2019-03-19T19:58:11.541Z,67.54
2019-03-19T20:00:42.284Z,67.36
2019-03-19T20:03:13.204Z,67.38
2019-03-19T20:05:45.662Z,67.88
2019-03-19T20:08:18.252Z,67.96
2019-03-19T20:10:49.084Z,68.04
2019-03-19T20:13:19.845Z,68.00
2019-03-19T20:15:50.608Z,68.07
2019-03-19T20:18:21.606Z,68.11
2019-03-19T20:20:52.021Z,68.01
2019-03-19T20:23:22.760Z,68.00
2019-03-19T20:25:53.487Z,68.04
2019-03-19T20:28:24.270Z,68.19
2019-03-19T20:30:55.166Z,68.45
2019-03-19T20:33:26.069Z,68.42
2019-03-19T20:35:56.982Z,68.75
2019-03-19T20:38:27.898Z,68.99
2019-03-19T20:40:58.820Z,68.86
2019-03-19T20:43:29.700Z,69.31
2019-03-19T20:46:00.504Z,69.24
2019-03-19T20:48:31.318Z,69.36
2019-03-19T20:51:02.057Z,69.20
2019-03-19T20:53:32.909Z,69.24
2019-03-19T20:56:04.204Z,69.40
2019-03-19T20:58:43.113Z,69.78
2019-03-19T21:01:07.529Z,69.98
2019-03-19T21:03:38.775Z,69.99
2019-03-19T21:06:09.736Z,70.17
2019-03-19T21:08:40.582Z,70.09
2019-03-19T21:11:11.479Z,69.89
2019-03-19T21:13:42.288Z,69.90
2019-03-19T21:16:13.188Z,70.08
2019-03-19T21:18:44.025Z,70.21
2019-03-19T21:21:14.970Z,70.17
2019-03-19T21:23:47.400Z,70.39
2019-03-19T21:26:18.202Z,69.98
2019-03-19T21:28:49.044Z,69.82
2019-03-19T21:31:19.915Z,69.70
2019-03-19T21:33:51.660Z,69.71
2019-03-19T21:36:22.597Z,69.96
2019-03-19T21:38:53.416Z,69.65
2019-03-19T21:41:24.221Z,69.28
2019-03-19T21:43:54.730Z,69.28
2019-03-19T21:46:25.487Z,68.74
2019-03-19T21:48:56.248Z,68.97
2019-03-19T21:51:26.918Z,69.07
2019-03-19T21:53:57.738Z,69.42
2019-03-19T21:56:28.549Z,70.02
2019-03-19T21:58:59.511Z,70.16
2019-03-19T22:01:30.286Z,70.36
2019-03-19T22:04:03.409Z,70.51
2019-03-19T22:06:33.603Z,70.56
2019-03-19T22:09:06.031Z,70.83
2019-03-19T22:11:36.914Z,71.05
2019-03-19T22:14:07.651Z,71.17
2019-03-19T22:16:38.495Z,70.81
2019-03-19T22:19:09.334Z,70.87
2019-03-19T22:21:39.759Z,70.70
2019-03-19T22:24:10.728Z,70.62
2019-03-19T22:26:41.540Z,70.91
2019-03-19T22:29:12.819Z,70.90
2019-03-19T22:31:43.927Z,71.31
2019-03-19T22:34:14.768Z,71.23
2019-03-19T22:36:45.700Z,71.45
2019-03-19T22:39:16.435Z,71.36
2019-03-19T22:41:47.270Z,71.37
2019-03-19T22:44:18.134Z,71.32
2019-03-19T22:46:48.942Z,71.64
2019-03-19T22:49:19.778Z,71.39
2019-03-19T22:51:50.546Z,71.26
2019-03-19T22:54:21.250Z,71.20
2019-03-19T22:56:51.981Z,71.39
2019-03-19T22:59:22.816Z,71.47
2019-03-19T23:01:53.561Z,71.68
2019-03-19T23:04:27.403Z,71.78
2019-03-19T23:06:57.505Z,71.58
2019-03-19T23:09:28.410Z,71.81
2019-03-19T23:11:59.172Z,71.83
2019-03-19T23:14:30.395Z,71.63
2019-03-19T23:17:01.237Z,71.49
2019-03-19T23:19:31.721Z,71.33
2019-03-19T23:22:02.604Z,71.59
2019-03-19T23:24:33.427Z,71.71
2019-03-19T23:27:04.264Z,71.47
2019-03-19T23:29:35.130Z,71.48
2019-03-19T23:32:05.940Z,71.52
2019-03-19T23:34:38.712Z,71.56
2019-03-19T23:37:09.409Z,71.70
2019-03-19T23:39:39.870Z,71.65
2019-03-19T23:42:10.361Z,71.80
2019-03-19T23:44:41.292Z,71.97
2019-03-19T23:47:12.087Z,71.79
2019-03-19T23:49:42.921Z,71.49
2019-03-19T23:52:13.757Z,71.37
2019-03-19T23:54:44.600Z,71.79
2019-03-19T23:57:15.434Z,71.49
2019-03-19T23:59:47.783Z,71.48
